Time;durP1;ratioP1;P1;durP2;ratioP2;P2;SDS_P1;SDS_P2;PMS_P1;PMS_P2;Temp;Humidity;BMP_temperature;BMP_pressure;BME280_temperature;BME280_humidity;BME280_pressure;Samples;Min_cycle;Max_cycle;Signal;HPM_P1;HPM_P2
2023/04/29 00:00:31;;;;;;;14.60;13.80;;;;;;;;;;5005286;28;20060;-64
2023/04/29 00:02:56;;;;;;;14.30;13.60;;;;;;;;;;5012251;28;20048;-64
2023/04/29 00:05:22;;;;;;;14.90;14.10;;;;;;;;;;5011558;28;20080;-64
2023/04/29 00:07:47;;;;;;;15.82;14.82;;;;;;;;;;5011794;28;20022;-63
2023/04/29 00:10:13;;;;;;;14.52;13.73;;;;;;;;;;5006463;28;20060;-63
2023/04/29 00:12:40;;;;;;;14.80;13.95;;;;;;;;;;5016635;28;20517;-64
2023/04/29 00:15:06;;;;;;;14.98;14.10;;;;;;;;;;5010180;28;20089;-65
2023/04/29 00:17:31;;;;;;;14.90;14.10;;;;;;;;;;5014290;28;20049;-64
2023/04/29 00:19:56;;;;;;;15.70;14.73;;;;;;;;;;5006675;28;20426;-64
2023/04/29 00:22:21;;;;;;;15.18;14.27;;;;;;;;;;5002828;28;20071;-63
2023/04/29 00:24:47;;;;;;;14.55;13.75;;;;;;;;;;5001208;28;20015;-63
2023/04/29 00:27:12;;;;;;;14.38;13.57;;;;;;;;;;5013664;28;20022;-63
2023/04/29 00:29:37;;;;;;;14.23;13.52;;;;;;;;;;5005686;28;20504;-63
2023/04/29 00:32:03;;;;;;;15.05;14.23;;;;;;;;;;5013547;28;20018;-64
2023/04/29 00:34:29;;;;;;;14.68;13.88;;;;;;;;;;5008321;28;20022;-64
2023/04/29 00:36:54;;;;;;;15.50;14.60;;;;;;;;;;5012905;28;20022;-64
2023/04/29 00:39:19;;;;;;;14.07;13.38;;;;;;;;;;5001689;28;20160;-64
2023/04/29 00:41:45;;;;;;;15.27;14.38;;;;;;;;;;5009855;28;20042;-64
2023/04/29 00:44:10;;;;;;;14.65;13.85;;;;;;;;;;5012938;28;20097;-64
2023/04/29 00:46:36;;;;;;;15.32;14.43;;;;;;;;;;5012699;28;20155;-64
2023/04/29 00:49:01;;;;;;;15.13;14.30;;;;;;;;;;5013182;28;20389;-64
2023/04/29 00:51:27;;;;;;;15.00;14.20;;;;;;;;;;5012974;28;20017;-64
2023/04/29 00:53:52;;;;;;;14.27;13.57;;;;;;;;;;5013570;28;20010;-63
2023/04/29 00:56:19;;;;;;;15.00;14.20;;;;;;;;;;5001549;28;20488;-65
2023/04/29 00:58:48;;;;;;;15.73;14.82;;;;;;;;;;5006722;28;20028;-64
2023/04/29 01:01:15;;;;;;;15.63;14.65;;;;;;;;;;5010661;28;20050;-64
2023/04/29 01:03:40;;;;;;;15.05;14.25;;;;;;;;;;5013923;28;20029;-64
2023/04/29 01:06:06;;;;;;;15.48;14.57;;;;;;;;;;5012736;28;20521;-63
2023/04/29 01:08:43;;;;;;;14.98;14.18;;;;;;;;;;5013375;28;20025;-63
2023/04/29 01:11:10;;;;;;;15.50;14.60;;;;;;;;;;5008881;28;20023;-64
2023/04/29 01:13:45;;;;;;;15.00;14.20;;;;;;;;;;5007516;28;20037;-64
2023/04/29 01:16:11;;;;;;;15.30;14.43;;;;;;;;;;5012156;28;20504;-65
2023/04/29 01:18:49;;;;;;;14.48;13.75;;;;;;;;;;5012500;28;20447;-64
2023/04/29 01:21:14;;;;;;;14.90;14.10;;;;;;;;;;5003904;28;20026;-65
2023/04/29 01:23:40;;;;;;;14.52;13.75;;;;;;;;;;5008941;28;20010;-64
2023/04/29 01:26:07;;;;;;;15.13;14.32;;;;;;;;;;5012131;28;20434;-64
2023/04/29 01:28:38;;;;;;;14.77;14.00;;;;;;;;;;5012483;28;20056;-64
2023/04/29 01:31:08;;;;;;;14.77;13.98;;;;;;;;;;5012831;28;20100;-65
2023/04/29 01:33:43;;;;;;;14.90;14.10;;;;;;;;;;5010106;28;20108;-64
2023/04/29 01:36:28;;;;;;;14.52;13.82;;;;;;;;;;5012849;28;20124;-64
2023/04/29 01:39:10;;;;;;;14.23;13.52;;;;;;;;;;5001963;28;20030;-64
2023/04/29 01:41:43;;;;;;;14.43;13.70;;;;;;;;;;5009713;28;20025;-64
2023/04/29 01:44:15;;;;;;;14.30;13.60;;;;;;;;;;5012974;28;20021;-64
2023/04/29 01:46:42;;;;;;;15.27;14.38;;;;;;;;;;5012554;28;20022;-65
2023/04/29 01:49:08;;;;;;;15.43;14.52;;;;;;;;;;5005456;28;20026;-65
2023/04/29 01:51:33;;;;;;;15.20;14.30;;;;;;;;;;5010543;28;20500;-63
2023/04/29 01:53:58;;;;;;;15.70;14.75;;;;;;;;;;5012359;28;20025;-63
2023/04/29 01:56:24;;;;;;;15.10;14.30;;;;;;;;;;5004204;28;20464;-64
2023/04/29 01:58:49;;;;;;;14.60;13.90;;;;;;;;;;5006396;28;20022;-64
2023/04/29 02:01:15;;;;;;;15.00;14.20;;;;;;;;;;5011769;28;20130;-64
2023/04/29 02:03:40;;;;;;;15.88;14.98;;;;;;;;;;5012352;28;20018;-64
2023/04/29 02:06:05;;;;;;;17.02;15.93;;;;;;;;;;5012185;28;20014;-64
2023/04/29 02:08:31;;;;;;;15.90;15.05;;;;;;;;;;5010224;28;20436;-64
2023/04/29 02:10:57;;;;;;;16.40;15.50;;;;;;;;;;5011306;28;20026;-65
2023/04/29 02:13:22;;;;;;;15.73;14.93;;;;;;;;;;5012209;28;20075;-65
2023/04/29 02:15:48;;;;;;;17.08;16.08;;;;;;;;;;5012147;28;20025;-65
2023/04/29 02:18:13;;;;;;;16.50;15.50;;;;;;;;;;5010026;28;20021;-65
2023/04/29 02:20:38;;;;;;;16.90;15.90;;;;;;;;;;5011827;28;20063;-64
2023/04/29 02:23:04;;;;;;;16.65;15.70;;;;;;;;;;5006324;28;20096;-64
2023/04/29 02:25:29;;;;;;;15.95;15.15;;;;;;;;;;5009683;28;20022;-64
2023/04/29 02:27:54;;;;;;;15.93;15.13;;;;;;;;;;5011677;28;20032;-64
2023/04/29 02:30:20;;;;;;;16.77;15.80;;;;;;;;;;5001650;28;20026;-64
2023/04/29 02:32:45;;;;;;;16.50;15.50;;;;;;;;;;5011625;28;20014;-63
2023/04/29 02:35:11;;;;;;;15.50;14.70;;;;;;;;;;5011619;28;20023;-64
2023/04/29 02:37:37;;;;;;;15.90;15.10;;;;;;;;;;5006810;28;20022;-64
2023/04/29 02:40:02;;;;;;;15.50;14.70;;;;;;;;;;5009868;28;20072;-64
2023/04/29 02:42:28;;;;;;;16.52;15.60;;;;;;;;;;5010918;28;20026;-64
2023/04/29 02:44:53;;;;;;;16.55;15.65;;;;;;;;;;5011538;28;20019;-64
2023/04/29 02:47:18;;;;;;;16.77;15.88;;;;;;;;;;5004798;28;20477;-64
2023/04/29 02:49:44;;;;;;;16.95;16.05;;;;;;;;;;5011484;28;20535;-64
2023/04/29 02:52:09;;;;;;;17.23;16.23;;;;;;;;;;5003039;28;20023;-63
2023/04/29 02:54:35;;;;;;;17.50;16.50;;;;;;;;;;4999064;28;20018;-64
2023/04/29 02:57:00;;;;;;;17.70;16.67;;;;;;;;;;5011559;28;20022;-63
2023/04/29 02:59:26;;;;;;;17.45;16.45;;;;;;;;;;5008476;28;20065;-64
2023/04/29 03:01:53;;;;;;;17.60;16.50;;;;;;;;;;5002509;28;20058;-64
2023/04/29 03:04:19;;;;;;;17.45;16.48;;;;;;;;;;5014994;28;20022;-64
2023/04/29 03:06:44;;;;;;;16.60;15.70;;;;;;;;;;5005238;28;20092;-64
2023/04/29 03:09:10;;;;;;;16.00;15.20;;;;;;;;;;5014958;28;20025;-64
2023/04/29 03:11:35;;;;;;;15.82;15.02;;;;;;;;;;5015210;28;20052;-64
2023/04/29 03:14:00;;;;;;;16.55;15.65;;;;;;;;;;5015348;28;20029;-63
2023/04/29 03:16:28;;;;;;;15.85;15.05;;;;;;;;;;5014790;28;20025;-64
2023/04/29 03:18:53;;;;;;;15.40;14.60;;;;;;;;;;5014759;28;20425;-63
2023/04/29 03:21:18;;;;;;;15.73;14.82;;;;;;;;;;5011264;28;20026;-63
2023/04/29 03:23:44;;;;;;;15.00;14.20;;;;;;;;;;5015435;28;20488;-64
2023/04/29 03:26:09;;;;;;;14.25;13.55;;;;;;;;;;5015364;28;20025;-64
2023/04/29 03:28:34;;;;;;;15.80;14.80;;;;;;;;;;5010418;28;20026;-64
2023/04/29 03:31:00;;;;;;;14.35;13.55;;;;;;;;;;5015245;28;20026;-64
2023/04/29 03:33:25;;;;;;;15.20;14.23;;;;;;;;;;5013124;28;20113;-64
2023/04/29 03:35:51;;;;;;;13.45;12.75;;;;;;;;;;5005287;28;20655;-64
2023/04/29 03:38:16;;;;;;;13.30;12.60;;;;;;;;;;5009653;28;20050;-64
2023/04/29 03:40:41;;;;;;;13.00;12.30;;;;;;;;;;5015860;28;20121;-64
2023/04/29 03:43:08;;;;;;;13.20;12.50;;;;;;;;;;5003106;28;20022;-64
2023/04/29 03:45:33;;;;;;;12.63;12.00;;;;;;;;;;5012496;28;20018;-63
2023/04/29 03:47:58;;;;;;;13.27;12.57;;;;;;;;;;5010876;28;20087;-63
2023/04/29 03:50:24;;;;;;;13.10;12.40;;;;;;;;;;5012687;28;20413;-64
2023/04/29 03:52:50;;;;;;;12.73;12.10;;;;;;;;;;5013755;28;20053;-64
2023/04/29 03:55:16;;;;;;;11.88;11.38;;;;;;;;;;5014990;28;20057;-64
2023/04/29 03:57:41;;;;;;;12.40;11.80;;;;;;;;;;5013804;28;20779;-65
2023/04/29 04:00:07;;;;;;;12.93;12.30;;;;;;;;;;5010569;28;20006;-64
2023/04/29 04:02:32;;;;;;;12.63;12.02;;;;;;;;;;5007622;28;20050;-64
2023/04/29 04:04:58;;;;;;;12.68;12.07;;;;;;;;;;5014746;28;20018;-65
2023/04/29 04:07:23;;;;;;;12.75;12.15;;;;;;;;;;5009426;28;20045;-63
2023/04/29 04:09:48;;;;;;;13.43;12.73;;;;;;;;;;5011771;28;20026;-65
2023/04/29 04:12:14;;;;;;;13.10;12.50;;;;;;;;;;5013177;28;20050;-64
2023/04/29 04:14:39;;;;;;;12.70;12.10;;;;;;;;;;5013693;28;20022;-64
2023/04/29 04:17:04;;;;;;;12.77;12.18;;;;;;;;;;5008283;28;20064;-64
2023/04/29 04:19:30;;;;;;;12.80;12.20;;;;;;;;;;5013858;28;20036;-65
2023/04/29 04:21:55;;;;;;;13.65;12.95;;;;;;;;;;5012511;28;20030;-64
2023/04/29 04:24:21;;;;;;;13.10;12.50;;;;;;;;;;5006160;28;20022;-63
2023/04/29 04:26:47;;;;;;;12.77;12.18;;;;;;;;;;5012455;28;20061;-64
2023/04/29 04:29:12;;;;;;;13.13;12.52;;;;;;;;;;5004353;28;20022;-65
2023/04/29 04:31:37;;;;;;;12.98;12.38;;;;;;;;;;5009054;28;20457;-65
2023/04/29 04:34:03;;;;;;;12.70;12.10;;;;;;;;;;5009934;28;20037;-68
2023/04/29 04:36:28;;;;;;;13.00;12.40;;;;;;;;;;5009275;28;20028;-67
2023/04/29 04:38:53;;;;;;;12.55;11.95;;;;;;;;;;5013773;28;20026;-68
2023/04/29 04:41:18;;;;;;;12.68;12.07;;;;;;;;;;5008455;28;20023;-64
2023/04/29 04:43:44;;;;;;;12.82;12.23;;;;;;;;;;5012392;28;20018;-65
2023/04/29 04:46:10;;;;;;;12.50;11.90;;;;;;;;;;5007780;28;20019;-64
2023/04/29 04:48:35;;;;;;;13.10;12.50;;;;;;;;;;5013032;28;20060;-64
2023/04/29 04:51:10;;;;;;;13.10;12.50;;;;;;;;;;5012867;28;20115;-65
2023/04/29 04:53:36;;;;;;;12.50;11.90;;;;;;;;;;5011034;28;20029;-65
2023/04/29 04:56:01;;;;;;;12.35;11.75;;;;;;;;;;5013355;28;20026;-65
2023/04/29 04:58:27;;;;;;;12.50;11.90;;;;;;;;;;5006149;28;20030;-64
2023/04/29 05:00:52;;;;;;;13.05;12.45;;;;;;;;;;5008682;28;20014;-64
2023/04/29 05:03:17;;;;;;;12.88;12.27;;;;;;;;;;5013223;28;20026;-64
2023/04/29 05:05:43;;;;;;;12.85;12.25;;;;;;;;;;5012680;28;20018;-64
2023/04/29 05:08:08;;;;;;;12.43;11.82;;;;;;;;;;5003615;28;20022;-65
2023/04/29 05:10:37;;;;;;;12.20;11.70;;;;;;;;;;5013137;28;20017;-65
2023/04/29 05:13:02;;;;;;;12.57;11.98;;;;;;;;;;5014321;28;20080;-65
2023/04/29 05:15:27;;;;;;;12.85;12.25;;;;;;;;;;5012021;28;20025;-65
2023/04/29 05:17:53;;;;;;;12.15;11.65;;;;;;;;;;5006154;28;20017;-65
2023/04/29 05:20:19;;;;;;;12.20;11.70;;;;;;;;;;5012339;28;20021;-65
2023/04/29 05:22:44;;;;;;;12.52;11.93;;;;;;;;;;5013104;28;20026;-65
2023/04/29 05:25:10;;;;;;;12.65;12.05;;;;;;;;;;5005247;28;20021;-63
2023/04/29 05:27:35;;;;;;;12.18;11.68;;;;;;;;;;5007711;28;20487;-64
2023/04/29 05:30:01;;;;;;;12.50;11.90;;;;;;;;;;5005932;28;20018;-64
2023/04/29 05:32:26;;;;;;;12.55;11.95;;;;;;;;;;5012069;28;20028;-64
2023/04/29 05:34:51;;;;;;;12.60;12.00;;;;;;;;;;5012826;28;20417;-64
2023/04/29 05:37:17;;;;;;;12.88;12.27;;;;;;;;;;5012611;28;20103;-65
2023/04/29 05:39:42;;;;;;;12.60;12.00;;;;;;;;;;5012694;28;20014;-65
2023/04/29 05:42:07;;;;;;;12.60;12.00;;;;;;;;;;5002702;28;20021;-65
2023/04/29 05:44:33;;;;;;;12.85;12.25;;;;;;;;;;5007408;28;20390;-65
2023/04/29 05:46:59;;;;;;;12.55;11.95;;;;;;;;;;5012692;28;20017;-65
2023/04/29 05:49:24;;;;;;;12.77;12.18;;;;;;;;;;5011917;28;20045;-64
2023/04/29 05:51:49;;;;;;;12.02;11.52;;;;;;;;;;5011507;28;20375;-65
2023/04/29 05:54:15;;;;;;;12.35;11.75;;;;;;;;;;5007285;28;20034;-64
2023/04/29 05:56:40;;;;;;;12.00;11.50;;;;;;;;;;5001424;28;20105;-64
2023/04/29 05:59:06;;;;;;;12.73;12.13;;;;;;;;;;5008172;28;20021;-64
2023/04/29 06:01:31;;;;;;;12.40;11.80;;;;;;;;;;5006616;28;20151;-65
2023/04/29 06:03:58;;;;;;;12.35;11.80;;;;;;;;;;5011178;28;20069;-65
2023/04/29 06:06:23;;;;;;;12.32;11.77;;;;;;;;;;5007172;28;20419;-65
2023/04/29 06:08:48;;;;;;;11.98;11.48;;;;;;;;;;5002334;28;20101;-64
2023/04/29 06:11:14;;;;;;;12.10;11.60;;;;;;;;;;5012290;28;20041;-64
2023/04/29 06:13:39;;;;;;;11.98;11.48;;;;;;;;;;5009160;28;20057;-64
2023/04/29 06:16:05;;;;;;;12.37;11.80;;;;;;;;;;5011783;28;20367;-64
2023/04/29 06:18:30;;;;;;;12.48;11.88;;;;;;;;;;5007191;28;20302;-65
2023/04/29 06:20:55;;;;;;;12.00;11.50;;;;;;;;;;5010740;28;20042;-64
2023/04/29 06:23:21;;;;;;;12.10;11.60;;;;;;;;;;5010665;28;20132;-64
2023/04/29 06:25:46;;;;;;;12.00;11.50;;;;;;;;;;5010430;28;20255;-64
2023/04/29 06:28:11;;;;;;;12.87;12.27;;;;;;;;;;5008748;28;20018;-64
2023/04/29 06:30:37;;;;;;;12.40;11.80;;;;;;;;;;5001618;28;20309;-64
2023/04/29 06:33:02;;;;;;;12.50;11.90;;;;;;;;;;5011210;28;20738;-64
2023/04/29 06:35:27;;;;;;;12.40;11.80;;;;;;;;;;5014126;28;20024;-64
2023/04/29 06:37:55;;;;;;;12.40;11.80;;;;;;;;;;5015263;28;20484;-64
2023/04/29 06:40:20;;;;;;;12.15;11.65;;;;;;;;;;5007118;28;20469;-64
2023/04/29 06:42:46;;;;;;;12.18;11.65;;;;;;;;;;5005589;28;20014;-64
2023/04/29 06:45:11;;;;;;;12.50;11.90;;;;;;;;;;5011004;28;20018;-64
2023/04/29 06:47:37;;;;;;;12.23;11.70;;;;;;;;;;5011411;28;20072;-64
2023/04/29 06:50:02;;;;;;;12.23;11.70;;;;;;;;;;5003696;28;20045;-64
2023/04/29 06:52:28;;;;;;;12.35;11.75;;;;;;;;;;5006528;28;20030;-64
2023/04/29 06:54:53;;;;;;;12.10;11.60;;;;;;;;;;5010305;28;20022;-64
2023/04/29 06:57:19;;;;;;;12.55;11.95;;;;;;;;;;5010724;28;20021;-64
2023/04/29 06:59:45;;;;;;;12.43;11.82;;;;;;;;;;5006100;28;20554;-64
2023/04/29 07:02:10;;;;;;;11.90;11.40;;;;;;;;;;5011097;28;20655;-64
2023/04/29 07:04:36;;;;;;;12.02;11.52;;;;;;;;;;5009962;28;20414;-64
2023/04/29 07:07:02;;;;;;;12.95;12.35;;;;;;;;;;5004817;28;20457;-64
2023/04/29 07:09:28;;;;;;;13.10;12.50;;;;;;;;;;5010983;28;20026;-64
2023/04/29 07:11:53;;;;;;;13.15;12.55;;;;;;;;;;5010682;28;20486;-64
2023/04/29 07:14:21;;;;;;;12.52;11.93;;;;;;;;;;5009674;28;20045;-65
2023/04/29 07:16:46;;;;;;;13.07;12.48;;;;;;;;;;5005491;28;20076;-63
2023/04/29 07:19:11;;;;;;;13.02;12.43;;;;;;;;;;5010599;28;20425;-65
2023/04/29 07:21:37;;;;;;;13.00;12.40;;;;;;;;;;5011092;28;20010;-63
2023/04/29 07:24:03;;;;;;;13.00;12.40;;;;;;;;;;5010850;28;20747;-63
2023/04/29 07:26:29;;;;;;;12.48;11.88;;;;;;;;;;5011061;28;20102;-65
2023/04/29 07:28:54;;;;;;;12.73;12.13;;;;;;;;;;5004291;28;20030;-64
2023/04/29 07:31:20;;;;;;;13.52;12.93;;;;;;;;;;5005678;28;20030;-65
2023/04/29 07:33:46;;;;;;;12.95;12.35;;;;;;;;;;5010467;28;20028;-64
2023/04/29 07:36:11;;;;;;;13.73;13.02;;;;;;;;;;5006267;28;20022;-64
2023/04/29 07:38:36;;;;;;;13.35;12.75;;;;;;;;;;5010794;28;20045;-63
2023/04/29 07:41:03;;;;;;;13.43;12.82;;;;;;;;;;5009481;28;20481;-64
2023/04/29 07:43:28;;;;;;;13.80;13.10;;;;;;;;;;5011646;28;20026;-64
2023/04/29 07:45:54;;;;;;;14.32;13.63;;;;;;;;;;5015236;28;20707;-63
2023/04/29 07:48:20;;;;;;;13.68;12.98;;;;;;;;;;5010231;28;20492;-64
2023/04/29 07:50:46;;;;;;;13.05;12.45;;;;;;;;;;5042828;28;20018;-64
2023/04/29 07:53:11;;;;;;;13.35;12.75;;;;;;;;;;5014065;28;20018;-64
2023/04/29 07:55:37;;;;;;;12.85;12.25;;;;;;;;;;5014900;28;20017;-64
2023/04/29 07:58:02;;;;;;;13.88;13.18;;;;;;;;;;5013939;28;20393;-63
2023/04/29 08:00:27;;;;;;;15.18;14.38;;;;;;;;;;5012243;28;20024;-63
2023/04/29 08:02:53;;;;;;;14.13;13.43;;;;;;;;;;5012823;28;20099;-64
2023/04/29 08:05:20;;;;;;;13.10;12.50;;;;;;;;;;5009359;28;20081;-63
2023/04/29 08:07:45;;;;;;;13.15;12.55;;;;;;;;;;5012427;28;20037;-64
2023/04/29 08:10:11;;;;;;;14.95;14.15;;;;;;;;;;5013547;28;20097;-63
2023/04/29 08:12:36;;;;;;;15.15;14.35;;;;;;;;;;5013624;28;20053;-64
2023/04/29 08:15:02;;;;;;;14.88;14.07;;;;;;;;;;5012752;28;20024;-64
2023/04/29 08:17:27;;;;;;;14.02;13.32;;;;;;;;;;5009635;28;20068;-65
2023/04/29 08:19:52;;;;;;;13.10;12.50;;;;;;;;;;5014254;28;20022;-63
2023/04/29 08:22:18;;;;;;;14.35;13.60;;;;;;;;;;5012664;28;20030;-64
2023/04/29 08:24:44;;;;;;;14.63;13.82;;;;;;;;;;5011146;28;20022;-64
2023/04/29 08:27:09;;;;;;;14.65;13.85;;;;;;;;;;5012685;28;20014;-65
2023/04/29 08:29:34;;;;;;;13.43;12.73;;;;;;;;;;5013482;28;20057;-64
2023/04/29 08:32:00;;;;;;;13.23;12.52;;;;;;;;;;5004844;28;20465;-64
2023/04/29 08:34:25;;;;;;;15.32;14.43;;;;;;;;;;5007745;28;20022;-64
2023/04/29 08:36:51;;;;;;;13.32;12.65;;;;;;;;;;5013024;28;20010;-64
2023/04/29 08:39:16;;;;;;;13.85;13.15;;;;;;;;;;5008751;28;20026;-64
2023/04/29 08:41:44;;;;;;;12.60;12.00;;;;;;;;;;5013473;28;20478;-63
2023/04/29 08:44:10;;;;;;;13.57;12.88;;;;;;;;;;5013973;28;20029;-64
2023/04/29 08:46:35;;;;;;;13.20;12.57;;;;;;;;;;5013167;28;20022;-64
2023/04/29 08:49:02;;;;;;;14.10;13.35;;;;;;;;;;5013062;28;20030;-64
2023/04/29 08:51:28;;;;;;;13.07;12.48;;;;;;;;;;5012281;28;20010;-64
2023/04/29 08:53:53;;;;;;;12.85;12.25;;;;;;;;;;5013658;28;20087;-64
2023/04/29 08:56:22;;;;;;;13.20;12.55;;;;;;;;;;5007314;28;20026;-65
2023/04/29 08:58:53;;;;;;;12.82;12.23;;;;;;;;;;5013615;28;20096;-63
2023/04/29 09:01:18;;;;;;;13.63;12.93;;;;;;;;;;5011714;28;20046;-64
2023/04/29 09:03:43;;;;;;;14.43;13.63;;;;;;;;;;5007873;28;20029;-65
2023/04/29 09:06:09;;;;;;;14.32;13.52;;;;;;;;;;5012091;28;20025;-65
2023/04/29 09:08:35;;;;;;;13.63;12.93;;;;;;;;;;5013306;28;20089;-64
2023/04/29 09:11:01;;;;;;;13.25;12.55;;;;;;;;;;5011824;28;20520;-64
2023/04/29 09:13:27;;;;;;;13.40;12.70;;;;;;;;;;5009122;28;20041;-63
2023/04/29 09:15:52;;;;;;;13.73;13.02;;;;;;;;;;5012131;28;20022;-65
2023/04/29 09:18:54;;;;;;;13.90;13.20;;;;;;;;;;5003191;28;20033;-63
2023/04/29 09:21:23;;;;;;;14.25;13.45;;;;;;;;;;5030374;28;20172;-64
2023/04/29 09:23:55;;;;;;;13.80;13.10;;;;;;;;;;5015241;28;20041;-65
2023/04/29 09:26:21;;;;;;;13.63;12.93;;;;;;;;;;5013286;28;20049;-65
2023/04/29 09:28:48;;;;;;;13.05;12.45;;;;;;;;;;5001930;28;20018;-65
2023/04/29 09:31:14;;;;;;;14.20;13.43;;;;;;;;;;5013043;28;20152;-64
2023/04/29 09:33:52;;;;;;;12.90;12.30;;;;;;;;;;5012492;28;20088;-65
2023/04/29 09:36:47;;;;;;;13.65;12.95;;;;;;;;;;5012074;28;20497;-63
2023/04/29 09:39:16;;;;;;;13.90;13.15;;;;;;;;;;5015280;28;20497;-63
2023/04/29 09:41:51;;;;;;;14.00;13.20;;;;;;;;;;5011914;28;20025;-64
2023/04/29 09:44:16;;;;;;;14.48;13.68;;;;;;;;;;5012279;28;20025;-63
2023/04/29 09:46:41;;;;;;;13.35;12.65;;;;;;;;;;5008896;28;20032;-64
2023/04/29 09:49:26;;;;;;;13.52;12.82;;;;;;;;;;5009775;28;20013;-63
2023/04/29 09:52:02;;;;;;;12.80;12.20;;;;;;;;;;5007361;28;20119;-64
2023/04/29 09:54:29;;;;;;;13.93;13.15;;;;;;;;;;5008626;28;20113;-64
2023/04/29 09:56:55;;;;;;;13.40;12.70;;;;;;;;;;5009092;28;20041;-65
2023/04/29 09:59:21;;;;;;;13.40;12.70;;;;;;;;;;5012174;28;20076;-64
2023/04/29 10:01:47;;;;;;;13.40;12.70;;;;;;;;;;4999453;28;20038;-64
2023/04/29 10:04:14;;;;;;;13.68;12.98;;;;;;;;;;5011317;28;20022;-64
2023/04/29 10:06:40;;;;;;;14.30;13.50;;;;;;;;;;5011285;28;20053;-64
2023/04/29 10:09:07;;;;;;;13.95;13.23;;;;;;;;;;5011804;28;20495;-64
2023/04/29 10:11:33;;;;;;;13.40;12.70;;;;;;;;;;5011780;28;20161;-65
2023/04/29 10:13:58;;;;;;;13.85;13.13;;;;;;;;;;5010084;28;20500;-64
2023/04/29 10:16:28;;;;;;;14.38;13.57;;;;;;;;;;5008806;28;20026;-64
2023/04/29 10:18:55;;;;;;;14.80;13.93;;;;;;;;;;5011894;28;20433;-63
2023/04/29 10:21:26;;;;;;;13.80;13.10;;;;;;;;;;5010378;28;20048;-63
2023/04/29 10:23:52;;;;;;;14.38;13.57;;;;;;;;;;5007866;28;20105;-63
2023/04/29 10:26:18;;;;;;;14.73;13.88;;;;;;;;;;5011806;28;20469;-64
2023/04/29 10:28:46;;;;;;;14.73;13.90;;;;;;;;;;5002658;28;20072;-64
2023/04/29 10:31:12;;;;;;;14.35;13.55;;;;;;;;;;5006558;28;20010;-64
2023/04/29 10:33:39;;;;;;;14.43;13.63;;;;;;;;;;5009730;28;20524;-64
2023/04/29 10:36:04;;;;;;;13.95;13.25;;;;;;;;;;5003946;28;20040;-65
2023/04/29 10:38:33;;;;;;;13.30;12.60;;;;;;;;;;5006908;28;20027;-63
2023/04/29 10:41:02;;;;;;;15.27;14.38;;;;;;;;;;5011319;28;20041;-65
2023/04/29 10:43:28;;;;;;;15.77;14.77;;;;;;;;;;5000281;28;20029;-63
2023/04/29 10:46:12;;;;;;;13.52;12.82;;;;;;;;;;5013351;28;20079;-64
2023/04/29 10:48:37;;;;;;;14.95;14.05;;;;;;;;;;5007027;28;20067;-64
2023/04/29 10:51:03;;;;;;;14.95;14.05;;;;;;;;;;5009648;28;21304;-63
2023/04/29 10:53:28;;;;;;;14.05;13.30;;;;;;;;;;5008616;28;20536;-63
2023/04/29 10:55:56;;;;;;;14.15;13.35;;;;;;;;;;5007680;28;20072;-63
2023/04/29 10:58:34;;;;;;;13.73;13.02;;;;;;;;;;5004700;28;20466;-65
2023/04/29 11:00:59;;;;;;;14.77;13.88;;;;;;;;;;5010905;28;20136;-65
2023/04/29 11:03:43;;;;;;;14.52;13.73;;;;;;;;;;5011059;28;20068;-64
2023/04/29 11:06:09;;;;;;;14.10;13.30;;;;;;;;;;5011287;28;20265;-64
2023/04/29 11:08:38;;;;;;;12.63;12.02;;;;;;;;;;5011457;28;20037;-64
2023/04/29 11:11:05;;;;;;;13.63;12.93;;;;;;;;;;5009797;28;20104;-65
2023/04/29 11:13:32;;;;;;;14.13;13.32;;;;;;;;;;5009871;28;20025;-64
2023/04/29 11:16:08;;;;;;;13.63;12.93;;;;;;;;;;5008628;28;20030;-64
2023/04/29 11:18:34;;;;;;;13.77;13.05;;;;;;;;;;5010861;28;20026;-63
2023/04/29 11:21:06;;;;;;;13.63;12.93;;;;;;;;;;5006573;28;20018;-64
2023/04/29 11:23:38;;;;;;;13.18;12.50;;;;;;;;;;5011112;28;20097;-65
2023/04/29 11:26:03;;;;;;;14.43;13.63;;;;;;;;;;5014091;28;20017;-64
2023/04/29 11:28:29;;;;;;;14.20;13.40;;;;;;;;;;5008417;28;20524;-64
2023/04/29 11:30:56;;;;;;;13.60;12.90;;;;;;;;;;5013180;28;20057;-64
2023/04/29 11:33:21;;;;;;;13.48;12.77;;;;;;;;;;5009261;28;20026;-64
2023/04/29 11:35:47;;;;;;;13.77;13.05;;;;;;;;;;5014982;28;20079;-64
2023/04/29 11:38:13;;;;;;;14.98;14.07;;;;;;;;;;5014059;28;20157;-65
2023/04/29 11:40:41;;;;;;;14.25;13.45;;;;;;;;;;5007439;28;20026;-62
2023/04/29 11:43:07;;;;;;;13.90;13.10;;;;;;;;;;5011585;28;20018;-64
2023/04/29 11:45:34;;;;;;;13.15;12.45;;;;;;;;;;5006213;28;20022;-64
2023/04/29 11:48:00;;;;;;;14.55;13.75;;;;;;;;;;5014031;28;20014;-63
2023/04/29 11:50:26;;;;;;;15.27;14.38;;;;;;;;;;5014165;28;20127;-64
2023/04/29 11:52:51;;;;;;;15.43;14.48;;;;;;;;;;5008920;28;20489;-64
2023/04/29 11:55:17;;;;;;;13.50;12.80;;;;;;;;;;5012960;28;20024;-64
2023/04/29 11:57:43;;;;;;;15.07;14.18;;;;;;;;;;5014430;28;20028;-64
2023/04/29 12:00:11;;;;;;;13.57;12.88;;;;;;;;;;5014512;28;20108;-64
2023/04/29 12:02:36;;;;;;;13.70;13.00;;;;;;;;;;5010534;28;20070;-64
2023/04/29 12:05:07;;;;;;;13.25;12.55;;;;;;;;;;5014666;28;20061;-65
2023/04/29 12:07:32;;;;;;;13.43;12.73;;;;;;;;;;5005014;28;20354;-64
2023/04/29 12:09:58;;;;;;;13.30;12.60;;;;;;;;;;5008105;28;20018;-64
2023/04/29 12:12:24;;;;;;;12.80;12.20;;;;;;;;;;5009092;28;20552;-64
2023/04/29 12:14:49;;;;;;;13.48;12.77;;;;;;;;;;5014242;28;20026;-65
2023/04/29 12:17:16;;;;;;;13.77;13.02;;;;;;;;;;5037918;28;20076;-64
2023/04/29 12:19:43;;;;;;;12.80;12.20;;;;;;;;;;5013696;28;20079;-63
2023/04/29 12:22:08;;;;;;;13.50;12.80;;;;;;;;;;5011410;28;20022;-64
2023/04/29 12:24:37;;;;;;;13.10;12.50;;;;;;;;;;5005479;28;20034;-64
2023/04/29 12:27:03;;;;;;;13.65;12.95;;;;;;;;;;5012105;28;20033;-65
2023/04/29 12:29:30;;;;;;;13.65;12.95;;;;;;;;;;5013655;28;20765;-64
2023/04/29 12:31:55;;;;;;;14.00;13.23;;;;;;;;;;5013529;28;20079;-64
2023/04/29 12:34:38;;;;;;;14.27;13.48;;;;;;;;;;5012657;28;20109;-63
2023/04/29 12:37:03;;;;;;;13.68;12.98;;;;;;;;;;5012107;28;20475;-65
2023/04/29 12:39:29;;;;;;;14.05;13.27;;;;;;;;;;5013979;28;20033;-64
2023/04/29 12:41:58;;;;;;;14.00;13.20;;;;;;;;;;5012625;28;20022;-65
2023/04/29 12:44:24;;;;;;;14.18;13.38;;;;;;;;;;5011253;28;20110;-65
2023/04/29 12:46:51;;;;;;;13.48;12.77;;;;;;;;;;5013117;28;20028;-64
2023/04/29 12:49:17;;;;;;;13.95;13.20;;;;;;;;;;5008338;28;20386;-64
2023/04/29 12:51:43;;;;;;;13.45;12.75;;;;;;;;;;5006116;28;20444;-64
2023/04/29 12:54:08;;;;;;;12.88;12.27;;;;;;;;;;5012823;28;20026;-64
2023/04/29 12:56:33;;;;;;;13.60;12.90;;;;;;;;;;5013260;28;20022;-64
2023/04/29 12:59:06;;;;;;;14.50;13.70;;;;;;;;;;5013114;28;20022;-64
2023/04/29 13:01:32;;;;;;;14.45;13.65;;;;;;;;;;5012114;28;20053;-64
2023/04/29 13:03:57;;;;;;;13.18;12.50;;;;;;;;;;5012584;28;20022;-64
2023/04/29 13:06:22;;;;;;;13.38;12.68;;;;;;;;;;5010665;28;20075;-63
2023/04/29 13:08:50;;;;;;;13.18;12.50;;;;;;;;;;5013072;28;20088;-63
2023/04/29 13:11:15;;;;;;;12.77;12.18;;;;;;;;;;5011719;28;20010;-63
2023/04/29 13:13:40;;;;;;;13.38;12.68;;;;;;;;;;5010700;28;20474;-64
2023/04/29 13:16:06;;;;;;;12.77;12.18;;;;;;;;;;5012667;28;20064;-65
2023/04/29 13:18:32;;;;;;;13.20;12.50;;;;;;;;;;5011718;28;20054;-64
2023/04/29 13:20:57;;;;;;;14.00;13.23;;;;;;;;;;5009139;28;20047;-63
2023/04/29 13:23:22;;;;;;;13.18;12.48;;;;;;;;;;5004435;28;20133;-65
2023/04/29 13:25:49;;;;;;;13.35;12.65;;;;;;;;;;5012614;28;20415;-64
2023/04/29 13:28:15;;;;;;;16.83;15.73;;;;;;;;;;4999533;28;20022;-64
2023/04/29 13:30:40;;;;;;;16.08;15.07;;;;;;;;;;5012186;28;20070;-64
2023/04/29 13:33:06;;;;;;;15.05;14.15;;;;;;;;;;5005595;28;20010;-65
2023/04/29 13:35:31;;;;;;;14.00;13.23;;;;;;;;;;5012603;28;20097;-64
2023/04/29 13:37:56;;;;;;;13.70;13.00;;;;;;;;;;5011957;28;20072;-64
2023/04/29 13:40:22;;;;;;;14.10;13.30;;;;;;;;;;5012172;28;20725;-65
2023/04/29 13:42:47;;;;;;;13.13;12.45;;;;;;;;;;5012359;28;20481;-64
2023/04/29 13:45:14;;;;;;;13.10;12.40;;;;;;;;;;5012378;28;20109;-64
2023/04/29 13:47:39;;;;;;;12.90;12.30;;;;;;;;;;5005316;28;20548;-64
2023/04/29 13:50:04;;;;;;;13.45;12.73;;;;;;;;;;5006664;28;20100;-64
2023/04/29 13:52:30;;;;;;;13.57;12.88;;;;;;;;;;5008875;28;20029;-64
2023/04/29 13:54:55;;;;;;;13.40;12.70;;;;;;;;;;5006754;28;20545;-64
2023/04/29 13:57:20;;;;;;;12.90;12.30;;;;;;;;;;5012283;28;20080;-64
2023/04/29 13:59:47;;;;;;;14.38;13.57;;;;;;;;;;5044141;28;20099;-64
2023/04/29 14:02:12;;;;;;;12.98;12.35;;;;;;;;;;5010288;28;20052;-64
2023/04/29 14:04:38;;;;;;;13.50;12.80;;;;;;;;;;5005376;28;20042;-64
2023/04/29 14:07:03;;;;;;;13.50;12.80;;;;;;;;;;5011825;28;20592;-66
2023/04/29 14:09:29;;;;;;;12.80;12.20;;;;;;;;;;5009223;28;20022;-65
2023/04/29 14:11:55;;;;;;;12.70;12.10;;;;;;;;;;5011981;28;20137;-65